sensor_id;sensor_type;location;lat;lon;timestamp;pressure;altitude;pressure_sealevel;temperature;humidity
64933;BME280;51446;53.850;10.662;2024-03-06T00:00:59;102043.91;;;3.53;100.00
64933;BME280;51446;53.850;10.662;2024-03-06T00:03:24;102040.13;;;3.47;100.00
64933;BME280;51446;53.850;10.662;2024-03-06T00:05:50;102047.09;;;3.35;100.00
64933;BME280;51446;53.850;10.662;2024-03-06T00:08:15;102042.72;;;3.47;100.00
64933;BME280;51446;53.850;10.662;2024-03-06T00:10:41;102052.31;;;3.62;100.00
64933;BME280;51446;53.850;10.662;2024-03-06T00:13:06;102053.56;;;3.69;100.00
64933;BME280;51446;53.850;10.662;2024-03-06T00:15:31;102057.94;;;3.83;100.00
64933;BME280;51446;53.850;10.662;2024-03-06T00:17:56;102056.34;;;3.98;100.00
64933;BME280;51446;53.850;10.662;2024-03-06T00:20:23;102058.56;;;3.65;100.00
64933;BME280;51446;53.850;10.662;2024-03-06T00:22:48;102055.38;;;3.70;100.00
64933;BME280;51446;53.850;10.662;2024-03-06T00:25:14;102065.78;;;3.43;100.00
64933;BME280;51446;53.850;10.662;2024-03-06T00:27:39;102064.47;;;3.36;100.00
64933;BME280;51446;53.850;10.662;2024-03-06T00:30:05;102065.84;;;3.71;100.00
64933;BME280;51446;53.850;10.662;2024-03-06T00:32:30;102072.13;;;3.61;100.00
64933;BME280;51446;53.850;10.662;2024-03-06T00:34:55;102068.06;;;3.65;100.00
64933;BME280;51446;53.850;10.662;2024-03-06T00:37:21;102070.72;;;3.40;100.00
64933;BME280;51446;53.850;10.662;2024-03-06T00:39:46;102066.56;;;3.28;100.00
64933;BME280;51446;53.850;10.662;2024-03-06T00:42:11;102066.22;;;3.24;100.00
64933;BME280;51446;53.850;10.662;2024-03-06T00:44:38;102072.72;;;3.44;100.00
64933;BME280;51446;53.850;10.662;2024-03-06T00:47:04;102070.63;;;3.38;100.00
64933;BME280;51446;53.850;10.662;2024-03-06T00:49:29;102065.94;;;3.33;100.00
64933;BME280;51446;53.850;10.662;2024-03-06T00:51:54;102083.38;;;3.22;100.00
64933;BME280;51446;53.850;10.662;2024-03-06T00:54:19;102074.38;;;3.17;100.00
64933;BME280;51446;53.850;10.662;2024-03-06T00:56:45;102070.44;;;3.35;100.00
64933;BME280;51446;53.850;10.662;2024-03-06T00:59:10;102073.50;;;3.29;100.00
64933;BME280;51446;53.850;10.662;2024-03-06T01:01:36;102073.50;;;3.16;100.00
64933;BME280;51446;53.850;10.662;2024-03-06T01:04:01;102075.22;;;3.42;100.00
64933;BME280;51446;53.850;10.662;2024-03-06T01:06:27;102086.91;;;3.49;100.00
64933;BME280;51446;53.850;10.662;2024-03-06T01:08:52;102085.31;;;3.51;100.00
64933;BME280;51446;53.850;10.662;2024-03-06T01:11:18;102079.50;;;3.69;100.00
64933;BME280;51446;53.850;10.662;2024-03-06T01:13:43;102084.63;;;3.54;100.00
64933;BME280;51446;53.850;10.662;2024-03-06T01:16:08;102082.38;;;4.00;100.00
64933;BME280;51446;53.850;10.662;2024-03-06T01:18:33;102086.38;;;4.08;100.00
64933;BME280;51446;53.850;10.662;2024-03-06T01:20:59;102091.88;;;3.99;100.00
64933;BME280;51446;53.850;10.662;2024-03-06T01:23:24;102093.06;;;3.91;100.00
64933;BME280;51446;53.850;10.662;2024-03-06T01:25:49;102098.78;;;3.99;100.00
64933;BME280;51446;53.850;10.662;2024-03-06T01:28:15;102101.16;;;4.09;100.00
64933;BME280;51446;53.850;10.662;2024-03-06T01:30:40;102104.97;;;3.88;100.00
64933;BME280;51446;53.850;10.662;2024-03-06T01:33:05;102108.69;;;3.64;100.00
64933;BME280;51446;53.850;10.662;2024-03-06T01:35:31;102098.88;;;3.74;100.00
64933;BME280;51446;53.850;10.662;2024-03-06T01:37:56;102110.94;;;3.46;100.00
64933;BME280;51446;53.850;10.662;2024-03-06T01:40:21;102106.25;;;3.54;100.00
64933;BME280;51446;53.850;10.662;2024-03-06T01:42:47;102109.31;;;3.35;100.00
64933;BME280;51446;53.850;10.662;2024-03-06T01:45:16;102108.72;;;3.26;100.00
64933;BME280;51446;53.850;10.662;2024-03-06T01:47:41;102108.72;;;3.26;100.00
64933;BME280;51446;53.850;10.662;2024-03-06T01:50:07;102108.25;;;3.58;100.00
64933;BME280;51446;53.850;10.662;2024-03-06T01:52:35;102114.25;;;3.71;100.00
64933;BME280;51446;53.850;10.662;2024-03-06T01:55:01;102117.94;;;3.47;100.00
64933;BME280;51446;53.850;10.662;2024-03-06T01:57:26;102117.06;;;3.60;100.00
64933;BME280;51446;53.850;10.662;2024-03-06T01:59:53;102109.84;;;3.96;100.00
64933;BME280;51446;53.850;10.662;2024-03-06T02:02:18;102115.34;;;3.74;100.00
64933;BME280;51446;53.850;10.662;2024-03-06T02:04:44;102108.75;;;3.79;100.00
64933;BME280;51446;53.850;10.662;2024-03-06T02:07:09;102118.03;;;3.36;100.00
64933;BME280;51446;53.850;10.662;2024-03-06T02:09:38;102121.03;;;3.69;100.00
64933;BME280;51446;53.850;10.662;2024-03-06T02:12:04;102115.06;;;3.96;100.00
64933;BME280;51446;53.850;10.662;2024-03-06T02:14:30;102119.81;;;3.90;100.00
64933;BME280;51446;53.850;10.662;2024-03-06T02:16:55;102122.41;;;3.90;100.00
64933;BME280;51446;53.850;10.662;2024-03-06T02:19:20;102122.41;;;3.90;100.00
64933;BME280;51446;53.850;10.662;2024-03-06T02:21:46;102129.59;;;4.21;100.00
64933;BME280;51446;53.850;10.662;2024-03-06T02:24:11;102125.78;;;4.16;100.00
64933;BME280;51446;53.850;10.662;2024-03-06T02:26:38;102132.28;;;4.23;100.00
64933;BME280;51446;53.850;10.662;2024-03-06T02:29:03;102127.31;;;4.12;100.00
64933;BME280;51446;53.850;10.662;2024-03-06T02:31:30;102135.00;;;4.11;100.00
64933;BME280;51446;53.850;10.662;2024-03-06T02:33:56;102128.81;;;3.95;100.00
64933;BME280;51446;53.850;10.662;2024-03-06T02:36:23;102135.22;;;4.01;100.00
64933;BME280;51446;53.850;10.662;2024-03-06T02:38:49;102127.13;;;4.09;100.00
64933;BME280;51446;53.850;10.662;2024-03-06T02:41:14;102135.13;;;3.99;100.00
64933;BME280;51446;53.850;10.662;2024-03-06T02:43:41;102127.34;;;3.99;100.00
64933;BME280;51446;53.850;10.662;2024-03-06T02:46:06;102118.25;;;3.92;100.00
64933;BME280;51446;53.850;10.662;2024-03-06T02:48:32;102128.91;;;3.97;100.00
64933;BME280;51446;53.850;10.662;2024-03-06T02:50:57;102127.63;;;3.50;100.00
64933;BME280;51446;53.850;10.662;2024-03-06T02:53:23;102129.47;;;3.26;100.00
64933;BME280;51446;53.850;10.662;2024-03-06T02:55:48;102123.53;;;3.15;100.00
64933;BME280;51446;53.850;10.662;2024-03-06T02:58:14;102127.72;;;3.13;100.00
64933;BME280;51446;53.850;10.662;2024-03-06T03:00:41;102131.09;;;3.51;100.00
64933;BME280;51446;53.850;10.662;2024-03-06T03:03:07;102136.66;;;3.30;100.00
64933;BME280;51446;53.850;10.662;2024-03-06T03:05:32;102126.59;;;3.48;100.00
64933;BME280;51446;53.850;10.662;2024-03-06T03:07:58;102144.38;;;3.69;100.00
64933;BME280;51446;53.850;10.662;2024-03-06T03:10:24;102139.00;;;3.92;100.00
64933;BME280;51446;53.850;10.662;2024-03-06T03:12:49;102141.47;;;3.77;100.00
64933;BME280;51446;53.850;10.662;2024-03-06T03:15:15;102141.38;;;3.62;100.00
64933;BME280;51446;53.850;10.662;2024-03-06T03:17:40;102146.19;;;3.70;100.00
64933;BME280;51446;53.850;10.662;2024-03-06T03:20:06;102147.97;;;3.84;100.00
64933;BME280;51446;53.850;10.662;2024-03-06T03:22:40;102146.81;;;3.79;100.00
64933;BME280;51446;53.850;10.662;2024-03-06T03:25:10;102153.25;;;3.86;100.00
64933;BME280;51446;53.850;10.662;2024-03-06T03:27:37;102154.59;;;3.79;100.00
64933;BME280;51446;53.850;10.662;2024-03-06T03:30:03;102154.19;;;3.86;100.00
64933;BME280;51446;53.850;10.662;2024-03-06T03:32:28;102155.06;;;3.73;100.00
64933;BME280;51446;53.850;10.662;2024-03-06T03:34:54;102160.72;;;3.54;100.00
64933;BME280;51446;53.850;10.662;2024-03-06T03:37:19;102159.25;;;3.85;100.00
64933;BME280;51446;53.850;10.662;2024-03-06T03:39:44;102156.56;;;3.96;100.00
64933;BME280;51446;53.850;10.662;2024-03-06T03:42:10;102167.72;;;3.69;100.00
64933;BME280;51446;53.850;10.662;2024-03-06T03:44:35;102152.16;;;3.69;100.00
64933;BME280;51446;53.850;10.662;2024-03-06T03:47:00;102159.78;;;3.92;100.00
64933;BME280;51446;53.850;10.662;2024-03-06T03:49:25;102161.88;;;3.98;100.00
64933;BME280;51446;53.850;10.662;2024-03-06T03:51:51;102169.34;;;3.93;100.00
64933;BME280;51446;53.850;10.662;2024-03-06T03:54:16;102164.72;;;3.62;100.00
64933;BME280;51446;53.850;10.662;2024-03-06T03:56:42;102162.63;;;3.70;100.00
64933;BME280;51446;53.850;10.662;2024-03-06T03:59:07;102161.44;;;3.65;100.00
64933;BME280;51446;53.850;10.662;2024-03-06T04:01:32;102168.63;;;3.69;100.00
64933;BME280;51446;53.850;10.662;2024-03-06T04:03:57;102166.22;;;3.59;100.00
64933;BME280;51446;53.850;10.662;2024-03-06T04:06:23;102172.84;;;3.80;100.00
64933;BME280;51446;53.850;10.662;2024-03-06T04:08:48;102163.53;;;3.97;100.00
64933;BME280;51446;53.850;10.662;2024-03-06T04:11:14;102167.06;;;3.98;100.00
64933;BME280;51446;53.850;10.662;2024-03-06T04:13:39;102168.66;;;4.09;100.00
64933;BME280;51446;53.850;10.662;2024-03-06T04:16:05;102178.41;;;4.00;100.00
64933;BME280;51446;53.850;10.662;2024-03-06T04:18:31;102185.44;;;3.88;100.00
64933;BME280;51446;53.850;10.662;2024-03-06T04:21:05;102187.69;;;3.70;100.00
64933;BME280;51446;53.850;10.662;2024-03-06T04:23:32;102180.13;;;3.99;100.00
64933;BME280;51446;53.850;10.662;2024-03-06T04:25:58;102192.59;;;3.92;100.00
64933;BME280;51446;53.850;10.662;2024-03-06T04:28:23;102190.19;;;3.81;100.00
64933;BME280;51446;53.850;10.662;2024-03-06T04:30:48;102202.06;;;4.05;100.00
64933;BME280;51446;53.850;10.662;2024-03-06T04:33:13;102195.50;;;4.10;100.00
64933;BME280;51446;53.850;10.662;2024-03-06T04:35:40;102196.59;;;4.00;100.00
64933;BME280;51446;53.850;10.662;2024-03-06T04:38:05;102202.69;;;4.01;100.00
64933;BME280;51446;53.850;10.662;2024-03-06T04:40:31;102197.66;;;3.77;100.00
64933;BME280;51446;53.850;10.662;2024-03-06T04:42:57;102200.19;;;4.02;100.00
64933;BME280;51446;53.850;10.662;2024-03-06T04:45:22;102197.38;;;3.86;100.00
64933;BME280;51446;53.850;10.662;2024-03-06T04:47:47;102202.66;;;3.87;100.00
64933;BME280;51446;53.850;10.662;2024-03-06T04:50:13;102195.09;;;3.90;100.00
64933;BME280;51446;53.850;10.662;2024-03-06T04:52:39;102196.00;;;4.17;100.00
64933;BME280;51446;53.850;10.662;2024-03-06T04:55:06;102198.69;;;3.79;100.00
64933;BME280;51446;53.850;10.662;2024-03-06T04:57:32;102208.78;;;4.01;100.00
64933;BME280;51446;53.850;10.662;2024-03-06T04:59:57;102206.34;;;3.77;100.00
64933;BME280;51446;53.850;10.662;2024-03-06T05:02:23;102211.28;;;3.47;100.00
64933;BME280;51446;53.850;10.662;2024-03-06T05:04:48;102208.97;;;3.39;100.00
64933;BME280;51446;53.850;10.662;2024-03-06T05:07:14;102212.31;;;3.24;100.00
64933;BME280;51446;53.850;10.662;2024-03-06T05:09:39;102213.13;;;3.37;100.00
64933;BME280;51446;53.850;10.662;2024-03-06T05:12:06;102216.22;;;3.56;100.00
64933;BME280;51446;53.850;10.662;2024-03-06T05:14:32;102221.75;;;3.36;100.00
64933;BME280;51446;53.850;10.662;2024-03-06T05:16:57;102227.03;;;3.37;100.00
64933;BME280;51446;53.850;10.662;2024-03-06T05:19:22;102227.81;;;3.36;100.00
64933;BME280;51446;53.850;10.662;2024-03-06T05:21:47;102223.56;;;3.25;100.00
64933;BME280;51446;53.850;10.662;2024-03-06T05:24:13;102221.09;;;3.26;100.00
64933;BME280;51446;53.850;10.662;2024-03-06T05:26:38;102227.31;;;3.17;100.00
64933;BME280;51446;53.850;10.662;2024-03-06T05:29:03;102232.69;;;3.32;100.00
64933;BME280;51446;53.850;10.662;2024-03-06T05:31:29;102229.00;;;3.41;100.00
64933;BME280;51446;53.850;10.662;2024-03-06T05:33:54;102228.97;;;3.53;100.00
64933;BME280;51446;53.850;10.662;2024-03-06T05:36:19;102229.28;;;3.33;100.00
64933;BME280;51446;53.850;10.662;2024-03-06T05:38:45;102224.09;;;3.33;100.00
64933;BME280;51446;53.850;10.662;2024-03-06T05:41:10;102230.63;;;3.14;100.00
64933;BME280;51446;53.850;10.662;2024-03-06T05:43:36;102235.59;;;3.36;100.00
64933;BME280;51446;53.850;10.662;2024-03-06T05:46:01;102238.91;;;3.47;100.00
64933;BME280;51446;53.850;10.662;2024-03-06T05:48:26;102245.75;;;3.33;100.00
64933;BME280;51446;53.850;10.662;2024-03-06T05:50:52;102243.94;;;3.32;100.00
64933;BME280;51446;53.850;10.662;2024-03-06T05:53:17;102240.88;;;3.38;100.00
64933;BME280;51446;53.850;10.662;2024-03-06T05:55:43;102256.72;;;3.29;100.00
64933;BME280;51446;53.850;10.662;2024-03-06T05:58:08;102254.00;;;3.27;100.00
64933;BME280;51446;53.850;10.662;2024-03-06T06:00:33;102258.78;;;3.21;100.00
64933;BME280;51446;53.850;10.662;2024-03-06T06:02:59;102260.66;;;3.24;100.00
64933;BME280;51446;53.850;10.662;2024-03-06T06:05:24;102268.66;;;3.27;100.00
64933;BME280;51446;53.850;10.662;2024-03-06T06:07:50;102271.59;;;3.32;100.00
64933;BME280;51446;53.850;10.662;2024-03-06T06:10:16;102268.16;;;3.33;100.00
64933;BME280;51446;53.850;10.662;2024-03-06T06:12:41;102272.72;;;3.23;100.00
64933;BME280;51446;53.850;10.662;2024-03-06T06:15:07;102274.81;;;3.16;100.00
64933;BME280;51446;53.850;10.662;2024-03-06T06:17:35;102283.53;;;3.29;100.00
64933;BME280;51446;53.850;10.662;2024-03-06T06:20:02;102282.94;;;3.34;100.00
64933;BME280;51446;53.850;10.662;2024-03-06T06:22:29;102290.97;;;3.25;100.00
64933;BME280;51446;53.850;10.662;2024-03-06T06:24:54;102291.19;;;3.28;100.00
64933;BME280;51446;53.850;10.662;2024-03-06T06:27:20;102292.94;;;3.41;100.00
64933;BME280;51446;53.850;10.662;2024-03-06T06:29:46;102295.22;;;3.36;100.00
64933;BME280;51446;53.850;10.662;2024-03-06T06:32:11;102300.56;;;3.51;100.00
64933;BME280;51446;53.850;10.662;2024-03-06T06:34:37;102293.06;;;3.42;100.00
64933;BME280;51446;53.850;10.662;2024-03-06T06:37:02;102307.81;;;3.43;100.00
64933;BME280;51446;53.850;10.662;2024-03-06T06:39:27;102307.16;;;3.46;100.00
64933;BME280;51446;53.850;10.662;2024-03-06T06:41:52;102312.78;;;3.65;100.00
64933;BME280;51446;53.850;10.662;2024-03-06T06:44:18;102313.53;;;3.51;100.00
64933;BME280;51446;53.850;10.662;2024-03-06T06:46:43;102327.34;;;3.38;100.00
64933;BME280;51446;53.850;10.662;2024-03-06T06:49:08;102332.63;;;3.52;100.00
64933;BME280;51446;53.850;10.662;2024-03-06T06:51:34;102336.03;;;3.64;100.00
64933;BME280;51446;53.850;10.662;2024-03-06T06:54:00;102334.84;;;3.47;100.00
64933;BME280;51446;53.850;10.662;2024-03-06T06:56:25;102340.28;;;3.50;100.00
64933;BME280;51446;53.850;10.662;2024-03-06T06:58:51;102338.91;;;3.55;100.00
64933;BME280;51446;53.850;10.662;2024-03-06T07:01:16;102348.75;;;3.73;100.00
64933;BME280;51446;53.850;10.662;2024-03-06T07:03:42;102353.94;;;3.73;100.00
64933;BME280;51446;53.850;10.662;2024-03-06T07:06:07;102359.50;;;3.65;100.00
64933;BME280;51446;53.850;10.662;2024-03-06T07:08:32;102369.03;;;3.53;100.00
64933;BME280;51446;53.850;10.662;2024-03-06T07:10:58;102368.94;;;3.52;100.00
64933;BME280;51446;53.850;10.662;2024-03-06T07:13:23;102371.06;;;3.57;100.00
64933;BME280;51446;53.850;10.662;2024-03-06T07:15:48;102375.25;;;3.69;100.00
64933;BME280;51446;53.850;10.662;2024-03-06T07:18:13;102375.97;;;3.66;100.00
64933;BME280;51446;53.850;10.662;2024-03-06T07:20:39;102374.47;;;3.70;100.00
64933;BME280;51446;53.850;10.662;2024-03-06T07:23:06;102381.47;;;3.71;100.00
64933;BME280;51446;53.850;10.662;2024-03-06T07:25:31;102383.41;;;3.73;100.00
64933;BME280;51446;53.850;10.662;2024-03-06T07:27:56;102385.44;;;3.65;100.00
64933;BME280;51446;53.850;10.662;2024-03-06T07:30:22;102388.59;;;3.61;100.00
64933;BME280;51446;53.850;10.662;2024-03-06T07:32:47;102389.63;;;3.63;100.00
64933;BME280;51446;53.850;10.662;2024-03-06T07:35:12;102393.41;;;3.80;100.00
64933;BME280;51446;53.850;10.662;2024-03-06T07:37:38;102400.44;;;3.70;100.00
64933;BME280;51446;53.850;10.662;2024-03-06T07:40:03;102405.50;;;3.68;100.00
64933;BME280;51446;53.850;10.662;2024-03-06T07:42:30;102395.75;;;3.77;100.00
64933;BME280;51446;53.850;10.662;2024-03-06T07:44:55;102396.88;;;3.81;100.00
64933;BME280;51446;53.850;10.662;2024-03-06T07:47:20;102407.38;;;3.82;100.00
64933;BME280;51446;53.850;10.662;2024-03-06T07:49:46;102409.75;;;3.79;100.00
64933;BME280;51446;53.850;10.662;2024-03-06T07:52:11;102409.59;;;3.90;100.00
64933;BME280;51446;53.850;10.662;2024-03-06T07:54:37;102408.66;;;4.01;100.00
64933;BME280;51446;53.850;10.662;2024-03-06T07:57:04;102418.03;;;3.99;100.00
64933;BME280;51446;53.850;10.662;2024-03-06T07:59:30;102407.41;;;3.96;100.00
64933;BME280;51446;53.850;10.662;2024-03-06T08:01:55;102409.28;;;4.10;100.00
64933;BME280;51446;53.850;10.662;2024-03-06T08:04:21;102424.53;;;4.06;100.00
64933;BME280;51446;53.850;10.662;2024-03-06T08:06:46;102425.66;;;3.84;100.00
64933;BME280;51446;53.850;10.662;2024-03-06T08:09:12;102431.34;;;4.04;100.00
64933;BME280;51446;53.850;10.662;2024-03-06T08:11:37;102422.00;;;3.94;100.00
64933;BME280;51446;53.850;10.662;2024-03-06T08:14:02;102430.03;;;4.10;100.00
64933;BME280;51446;53.850;10.662;2024-03-06T08:16:52;102434.03;;;4.05;100.00
64933;BME280;51446;53.850;10.662;2024-03-06T08:19:17;102437.47;;;3.92;100.00
64933;BME280;51446;53.850;10.662;2024-03-06T08:21:42;102447.91;;;3.80;100.00
64933;BME280;51446;53.850;10.662;2024-03-06T08:24:08;102446.47;;;3.97;100.00
64933;BME280;51446;53.850;10.662;2024-03-06T08:26:33;102443.72;;;3.82;100.00
64933;BME280;51446;53.850;10.662;2024-03-06T08:28:58;102446.16;;;3.93;100.00
64933;BME280;51446;53.850;10.662;2024-03-06T08:31:23;102449.72;;;4.07;100.00
64933;BME280;51446;53.850;10.662;2024-03-06T08:33:50;102453.19;;;4.32;100.00
64933;BME280;51446;53.850;10.662;2024-03-06T08:36:15;102458.03;;;4.40;100.00
64933;BME280;51446;53.850;10.662;2024-03-06T08:38:41;102452.16;;;4.17;100.00
64933;BME280;51446;53.850;10.662;2024-03-06T08:41:06;102458.19;;;4.04;100.00
64933;BME280;51446;53.850;10.662;2024-03-06T08:43:31;102464.84;;;4.26;100.00
64933;BME280;51446;53.850;10.662;2024-03-06T08:45:57;102472.38;;;4.34;100.00
64933;BME280;51446;53.850;10.662;2024-03-06T08:48:22;102471.00;;;4.14;100.00
64933;BME280;51446;53.850;10.662;2024-03-06T08:50:47;102473.44;;;4.25;100.00
64933;BME280;51446;53.850;10.662;2024-03-06T08:53:13;102473.78;;;4.29;100.00
64933;BME280;51446;53.850;10.662;2024-03-06T08:55:39;102478.97;;;4.29;100.00
64933;BME280;51446;53.850;10.662;2024-03-06T08:58:04;102479.03;;;4.56;100.00
64933;BME280;51446;53.850;10.662;2024-03-06T09:00:29;102480.34;;;4.49;100.00
64933;BME280;51446;53.850;10.662;2024-03-06T09:02:54;102488.06;;;4.36;100.00
64933;BME280;51446;53.850;10.662;2024-03-06T09:05:20;102487.44;;;4.27;100.00
64933;BME280;51446;53.850;10.662;2024-03-06T09:07:47;102496.59;;;4.47;100.00
64933;BME280;51446;53.850;10.662;2024-03-06T09:10:12;102493.16;;;4.60;100.00
64933;BME280;51446;53.850;10.662;2024-03-06T09:12:38;102487.78;;;4.83;100.00
64933;BME280;51446;53.850;10.662;2024-03-06T09:15:04;102491.31;;;4.97;100.00
64933;BME280;51446;53.850;10.662;2024-03-06T09:17:32;102488.81;;;4.99;100.00
64933;BME280;51446;53.850;10.662;2024-03-06T09:19:57;102491.91;;;5.07;100.00
64933;BME280;51446;53.850;10.662;2024-03-06T09:22:23;102493.78;;;4.82;100.00
64933;BME280;51446;53.850;10.662;2024-03-06T09:24:48;102492.63;;;5.31;100.00
64933;BME280;51446;53.850;10.662;2024-03-06T09:27:17;102493.97;;;5.79;100.00
64933;BME280;51446;53.850;10.662;2024-03-06T09:29:42;102503.47;;;5.79;100.00
64933;BME280;51446;53.850;10.662;2024-03-06T09:32:08;102498.28;;;6.20;100.00
64933;BME280;51446;53.850;10.662;2024-03-06T09:34:33;102506.56;;;6.86;100.00
64933;BME280;51446;53.850;10.662;2024-03-06T09:36:58;102505.63;;;7.16;100.00
64933;BME280;51446;53.850;10.662;2024-03-06T09:39:24;102501.31;;;7.31;100.00
64933;BME280;51446;53.850;10.662;2024-03-06T09:41:49;102499.84;;;8.65;100.00
64933;BME280;51446;53.850;10.662;2024-03-06T09:44:16;102503.03;;;8.94;100.00
64933;BME280;51446;53.850;10.662;2024-03-06T09:46:45;102512.34;;;8.38;100.00
64933;BME280;51446;53.850;10.662;2024-03-06T09:49:12;102513.38;;;8.74;100.00
64933;BME280;51446;53.850;10.662;2024-03-06T09:51:42;102504.50;;;8.05;100.00
64933;BME280;51446;53.850;10.662;2024-03-06T09:54:11;102516.53;;;10.50;100.00
64933;BME280;51446;53.850;10.662;2024-03-06T09:56:36;102514.94;;;9.77;100.00
64933;BME280;51446;53.850;10.662;2024-03-06T09:59:02;102520.19;;;8.71;100.00
64933;BME280;51446;53.850;10.662;2024-03-06T10:01:29;102531.22;;;6.48;100.00
64933;BME280;51446;53.850;10.662;2024-03-06T10:03:56;102528.47;;;5.90;100.00
64933;BME280;51446;53.850;10.662;2024-03-06T10:06:21;102533.22;;;5.82;100.00
64933;BME280;51446;53.850;10.662;2024-03-06T10:08:46;102531.00;;;5.88;100.00
64933;BME280;51446;53.850;10.662;2024-03-06T10:11:12;102533.13;;;5.81;100.00
64933;BME280;51446;53.850;10.662;2024-03-06T10:13:37;102536.91;;;5.86;100.00
64933;BME280;51446;53.850;10.662;2024-03-06T10:16:04;102538.09;;;6.04;100.00
64933;BME280;51446;53.850;10.662;2024-03-06T10:18:33;102535.75;;;6.22;100.00
64933;BME280;51446;53.850;10.662;2024-03-06T10:20:59;102545.63;;;6.00;100.00
64933;BME280;51446;53.850;10.662;2024-03-06T10:23:25;102541.56;;;5.36;100.00
64933;BME280;51446;53.850;10.662;2024-03-06T10:25:53;102537.34;;;5.38;100.00
64933;BME280;51446;53.850;10.662;2024-03-06T10:28:20;102545.31;;;5.95;100.00
64933;BME280;51446;53.850;10.662;2024-03-06T10:30:46;102545.81;;;5.76;100.00
64933;BME280;51446;53.850;10.662;2024-03-06T10:33:12;102551.34;;;5.54;100.00
64933;BME280;51446;53.850;10.662;2024-03-06T10:35:40;102552.75;;;5.76;100.00
64933;BME280;51446;53.850;10.662;2024-03-06T10:38:07;102553.25;;;5.56;100.00
64933;BME280;51446;53.850;10.662;2024-03-06T10:40:37;102551.13;;;5.11;100.00
64933;BME280;51446;53.850;10.662;2024-03-06T10:43:04;102553.03;;;5.13;100.00
64933;BME280;51446;53.850;10.662;2024-03-06T10:48:01;102560.44;;;5.34;100.00
64933;BME280;51446;53.850;10.662;2024-03-06T10:50:27;102560.75;;;5.25;100.00
64933;BME280;51446;53.850;10.662;2024-03-06T10:52:53;102559.84;;;5.25;100.00
64933;BME280;51446;53.850;10.662;2024-03-06T10:55:20;102549.81;;;5.04;100.00
64933;BME280;51446;53.850;10.662;2024-03-06T10:57:46;102560.53;;;5.09;100.00
64933;BME280;51446;53.850;10.662;2024-03-06T11:00:12;102561.34;;;5.74;100.00
64933;BME280;51446;53.850;10.662;2024-03-06T11:02:43;102562.84;;;5.31;100.00
64933;BME280;51446;53.850;10.662;2024-03-06T11:05:09;102562.75;;;5.43;100.00
64933;BME280;51446;53.850;10.662;2024-03-06T11:07:35;102568.72;;;5.01;100.00
64933;BME280;51446;53.850;10.662;2024-03-06T11:10:01;102568.84;;;5.30;100.00
64933;BME280;51446;53.850;10.662;2024-03-06T11:12:36;102565.06;;;5.25;100.00
64933;BME280;51446;53.850;10.662;2024-03-06T11:15:15;102564.81;;;5.08;100.00
64933;BME280;51446;53.850;10.662;2024-03-06T11:17:42;102563.63;;;5.16;100.00
64933;BME280;51446;53.850;10.662;2024-03-06T11:20:08;102560.66;;;5.10;100.00
64933;BME280;51446;53.850;10.662;2024-03-06T11:28:10;102572.53;;;5.20;100.00
64933;BME280;51446;53.850;10.662;2024-03-06T11:30:58;102571.06;;;5.64;100.00
64933;BME280;51446;53.850;10.662;2024-03-06T11:33:43;102568.06;;;5.44;100.00
64933;BME280;51446;53.850;10.662;2024-03-06T11:36:23;102575.66;;;5.54;100.00
64933;BME280;51446;53.850;10.662;2024-03-06T11:38:56;102581.75;;;5.28;100.00
64933;BME280;51446;53.850;10.662;2024-03-06T11:41:23;102572.91;;;5.13;100.00
64933;BME280;51446;53.850;10.662;2024-03-06T11:43:50;102581.66;;;5.27;100.00
64933;BME280;51446;53.850;10.662;2024-03-06T11:46:19;102579.44;;;5.06;100.00
64933;BME280;51446;53.850;10.662;2024-03-06T11:48:51;102585.63;;;5.08;100.00
64933;BME280;51446;53.850;10.662;2024-03-06T11:51:17;102581.66;;;5.13;100.00
64933;BME280;51446;53.850;10.662;2024-03-06T11:53:43;102584.53;;;5.04;100.00
64933;BME280;51446;53.850;10.662;2024-03-06T11:56:09;102578.66;;;5.34;100.00
64933;BME280;51446;53.850;10.662;2024-03-06T11:58:35;102590.53;;;5.03;100.00
64933;BME280;51446;53.850;10.662;2024-03-06T12:01:00;102589.25;;;5.10;100.00
64933;BME280;51446;53.850;10.662;2024-03-06T12:03:27;102586.88;;;5.67;100.00
64933;BME280;51446;53.850;10.662;2024-03-06T12:05:52;102590.88;;;5.48;100.00
64933;BME280;51446;53.850;10.662;2024-03-06T12:08:18;102588.31;;;4.96;100.00
64933;BME280;51446;53.850;10.662;2024-03-06T12:10:45;102575.41;;;5.11;100.00
64933;BME280;51446;53.850;10.662;2024-03-06T12:13:11;102595.69;;;5.42;100.00
64933;BME280;51446;53.850;10.662;2024-03-06T12:15:36;102593.31;;;5.72;100.00
64933;BME280;51446;53.850;10.662;2024-03-06T12:18:02;102598.50;;;5.45;100.00
64933;BME280;51446;53.850;10.662;2024-03-06T12:20:27;102593.59;;;5.36;100.00
64933;BME280;51446;53.850;10.662;2024-03-06T12:22:53;102597.41;;;5.42;100.00
64933;BME280;51446;53.850;10.662;2024-03-06T12:25:22;102593.59;;;5.77;100.00
64933;BME280;51446;53.850;10.662;2024-03-06T12:27:49;102603.63;;;5.97;100.00
64933;BME280;51446;53.850;10.662;2024-03-06T12:30:18;102602.09;;;6.14;100.00
64933;BME280;51446;53.850;10.662;2024-03-06T12:32:56;102597.16;;;6.19;100.00
64933;BME280;51446;53.850;10.662;2024-03-06T12:35:25;102597.81;;;6.01;100.00
64933;BME280;51446;53.850;10.662;2024-03-06T12:37:51;102605.50;;;6.13;100.00
64933;BME280;51446;53.850;10.662;2024-03-06T12:40:16;102602.00;;;6.13;100.00
64933;BME280;51446;53.850;10.662;2024-03-06T12:42:42;102602.19;;;5.76;100.00